Time;durP1;ratioP1;P1;durP2;ratioP2;P2;SDS_P1;SDS_P2;PMS_P1;PMS_P2;Temp;Humidity;BMP_temperature;BMP_pressure;BME280_temperature;BME280_humidity;BME280_pressure;Samples;Min_cycle;Max_cycle;Signal;HPM_P1;HPM_P2
2021/05/23 00:01:37;;;;;;;5.47;1.20;;;10.10;99.90;;;;;;5080274;28;20198;-53
2021/05/23 00:04:05;;;;;;;5.33;1.30;;;10.00;99.90;;;;;;5070357;28;20285;-48
2021/05/23 00:06:31;;;;;;;4.10;1.30;;;10.00;99.90;;;;;;5081519;28;20222;-55
2021/05/23 00:08:57;;;;;;;4.73;1.30;;;10.00;99.90;;;;;;5082767;28;20210;-48
2021/05/23 00:11:23;;;;;;;5.97;1.53;;;10.00;99.90;;;;;;5083406;28;20190;-56
2021/05/23 00:13:50;;;;;;;3.40;1.37;;;10.00;99.90;;;;;;5081563;28;20192;-47
2021/05/23 00:16:18;;;;;;;5.20;1.63;;;10.00;99.90;;;;;;5084193;28;20226;-47
2021/05/23 00:18:46;;;;;;;3.43;1.37;;;10.00;99.90;;;;;;5079825;28;20439;-47
2021/05/23 00:21:18;;;;;;;4.37;1.33;;;10.00;99.90;;;;;;5070021;28;20214;-47
2021/05/23 00:23:44;;;;;;;4.30;1.33;;;10.00;99.90;;;;;;5080396;28;20925;-49
2021/05/23 00:26:11;;;;;;;5.30;1.30;;;10.00;99.90;;;;;;5084301;28;20222;-49
2021/05/23 00:28:37;;;;;;;2.40;1.23;;;10.00;99.90;;;;;;5079519;28;20279;-54
2021/05/23 00:31:05;;;;;;;3.70;1.20;;;10.00;99.90;;;;;;5084324;28;20223;-51
2021/05/23 00:33:31;;;;;;;6.63;1.40;;;10.00;99.90;;;;;;5081308;28;20198;-56
2021/05/23 00:35:58;;;;;;;4.43;1.50;;;10.00;99.90;;;;;;5067754;28;20275;-51
2021/05/23 00:38:25;;;;;;;3.80;1.23;;;10.00;99.90;;;;;;5082653;28;20190;-56
2021/05/23 00:40:51;;;;;;;4.40;1.63;;;9.90;99.90;;;;;;5081105;28;20197;-50
2021/05/23 00:43:20;;;;;;;5.87;1.70;;;9.90;99.90;;;;;;5083440;28;20229;-50
2021/05/23 00:45:48;;;;;;;3.03;1.53;;;10.00;99.90;;;;;;5080618;28;20224;-51
2021/05/23 00:48:14;;;;;;;4.77;1.40;;;9.90;99.90;;;;;;5083886;28;20208;-48
2021/05/23 00:50:41;;;;;;;4.90;1.70;;;9.90;99.90;;;;;;5064710;28;20209;-48
2021/05/23 00:53:08;;;;;;;5.53;1.80;;;9.90;99.90;;;;;;5083907;28;20198;-52
2021/05/23 00:55:36;;;;;;;5.57;1.67;;;10.00;99.90;;;;;;5080197;28;20667;-55
2021/05/23 00:58:03;;;;;;;6.00;1.40;;;10.00;99.90;;;;;;5083701;28;20224;-51
2021/05/23 01:01:03;;;;;;;3.37;1.47;;;10.00;99.90;;;;;;5080611;28;20194;-56
2021/05/23 01:03:55;;;;;;;3.37;1.47;;;10.00;99.90;;;;;;5080986;28;20564;-54
2021/05/23 01:06:21;;;;;;;7.73;1.90;;;10.00;99.90;;;;;;5070837;28;20233;-56
2021/05/23 01:08:49;;;;;;;3.90;1.40;;;10.00;99.90;;;;;;5064391;28;20205;-47
2021/05/23 01:11:55;;;;;;;6.73;1.70;;;10.00;99.90;;;;;;5062517;28;20201;-48
2021/05/23 01:14:43;;;;;;;6.70;1.67;;;10.00;99.90;;;;;;5060993;28;20541;-54
2021/05/23 01:17:11;;;;;;;6.90;1.33;;;10.00;99.90;;;;;;5062596;28;20214;-49
2021/05/23 01:19:50;;;;;;;2.87;1.30;;;9.90;99.90;;;;;;5058575;28;20763;-52
2021/05/23 01:22:20;;;;;;;4.33;1.47;;;10.00;99.90;;;;;;5063283;28;20548;-47
2021/05/23 01:24:57;;;;;;;5.90;1.27;;;10.00;99.90;;;;;;5068346;28;20290;-50
2021/05/23 01:27:26;;;;;;;2.97;1.33;;;9.90;99.90;;;;;;5062213;28;20554;-56
2021/05/23 01:29:53;;;;;;;1.90;1.23;;;10.00;99.90;;;;;;5060492;28;20182;-48
2021/05/23 01:32:19;;;;;;;7.13;1.40;;;10.00;99.90;;;;;;5062704;28;20186;-55
2021/05/23 01:34:45;;;;;;;5.23;1.93;;;10.00;99.90;;;;;;5058415;28;20229;-52
2021/05/23 01:37:15;;;;;;;3.93;1.40;;;10.00;99.90;;;;;;5080053;28;20699;-50
2021/05/23 01:39:42;;;;;;;5.00;1.43;;;9.90;99.90;;;;;;5064083;28;20213;-49
2021/05/23 01:42:10;;;;;;;5.37;2.17;;;9.90;99.90;;;;;;5083216;28;20247;-48
2021/05/23 01:44:36;;;;;;;7.00;1.37;;;9.90;99.90;;;;;;5093086;28;20201;-49
2021/05/23 01:47:02;;;;;;;2.83;1.60;;;9.90;99.90;;;;;;5101692;28;20224;-54
2021/05/23 01:49:29;;;;;;;2.67;1.40;;;9.80;99.90;;;;;;5104644;28;20912;-48
2021/05/23 01:51:55;;;;;;;3.87;1.20;;;9.80;99.90;;;;;;5107420;28;20193;-54
2021/05/23 01:54:21;;;;;;;4.73;1.70;;;9.90;99.90;;;;;;5085613;28;21329;-51
2021/05/23 01:56:47;;;;;;;3.73;1.57;;;9.90;99.90;;;;;;5087091;28;20266;-48
2021/05/23 01:59:14;;;;;;;4.63;1.27;;;9.80;99.90;;;;;;5062131;28;20716;-56
2021/05/23 02:01:40;;;;;;;5.83;1.40;;;9.80;99.90;;;;;;5066470;28;20194;-53
2021/05/23 02:04:09;;;;;;;2.63;1.40;;;9.80;99.90;;;;;;5064077;28;20195;-54
2021/05/23 02:06:35;;;;;;;6.57;1.70;;;9.80;99.90;;;;;;5077524;28;20307;-50
2021/05/23 02:09:01;;;;;;;5.07;1.53;;;9.80;99.90;;;;;;5084575;28;20564;-55
2021/05/23 02:11:27;;;;;;;8.27;2.20;;;9.80;99.90;;;;;;5070134;28;20241;-51
2021/05/23 02:13:54;;;;;;;4.90;1.50;;;9.80;99.90;;;;;;5086177;28;20194;-50
2021/05/23 02:16:21;;;;;;;5.40;1.40;;;9.80;99.90;;;;;;5082676;28;20198;-49
2021/05/23 02:18:47;;;;;;;5.53;1.67;;;9.80;99.90;;;;;;5085978;28;20203;-49
2021/05/23 02:21:14;;;;;;;6.63;1.50;;;9.80;99.90;;;;;;5082700;28;20251;-57
2021/05/23 02:23:49;;;;;;;5.63;1.63;;;9.80;99.90;;;;;;5086605;28;20603;-56
2021/05/23 02:26:15;;;;;;;2.03;1.13;;;9.80;99.90;;;;;;5068342;28;24612;-56
2021/05/23 02:28:41;;;;;;;3.63;1.40;;;9.80;99.90;;;;;;5085513;28;20206;-55
2021/05/23 02:31:07;;;;;;;4.10;1.50;;;9.80;99.90;;;;;;5083886;28;20193;-57
2021/05/23 02:33:34;;;;;;;4.43;1.53;;;9.70;99.90;;;;;;5084896;28;20194;-51
2021/05/23 02:36:01;;;;;;;2.93;1.27;;;9.80;99.90;;;;;;5084820;28;20225;-57
2021/05/23 02:38:27;;;;;;;5.33;1.53;;;9.70;99.90;;;;;;5083736;28;20199;-53
2021/05/23 02:40:54;;;;;;;8.63;2.07;;;9.70;99.90;;;;;;5085722;28;20659;-56
2021/05/23 02:43:22;;;;;;;4.33;1.67;;;9.70;99.90;;;;;;5068172;28;20202;-48
2021/05/23 02:45:48;;;;;;;3.10;1.33;;;9.70;99.90;;;;;;5085754;28;20717;-53
2021/05/23 02:48:15;;;;;;;6.50;2.03;;;9.60;99.90;;;;;;5081594;28;20193;-55
2021/05/23 02:50:43;;;;;;;4.37;1.63;;;9.60;99.90;;;;;;5085508;28;20197;-53
2021/05/23 02:53:10;;;;;;;3.40;1.47;;;9.60;99.90;;;;;;5082906;28;20190;-55
2021/05/23 02:55:39;;;;;;;4.70;1.40;;;9.50;99.90;;;;;;5085221;28;20622;-51
2021/05/23 02:58:06;;;;;;;5.00;1.60;;;9.50;99.90;;;;;;5069409;28;20217;-56
2021/05/23 03:00:33;;;;;;;6.57;1.50;;;9.50;99.90;;;;;;5081515;28;20818;-51
2021/05/23 03:02:59;;;;;;;7.20;1.87;;;9.40;99.90;;;;;;5084545;28;20194;-56
2021/05/23 03:05:26;;;;;;;5.20;1.80;;;9.40;99.90;;;;;;5082597;28;20214;-48
2021/05/23 03:07:56;;;;;;;2.77;1.30;;;9.40;99.90;;;;;;5085436;28;20235;-50
2021/05/23 03:10:23;;;;;;;2.03;1.30;;;9.30;99.90;;;;;;5081413;28;20243;-51
2021/05/23 03:12:50;;;;;;;5.30;1.83;;;9.30;99.90;;;;;;5059402;28;20206;-52
2021/05/23 03:15:18;;;;;;;6.87;1.70;;;9.30;99.90;;;;;;5084903;28;20205;-50
2021/05/23 03:17:45;;;;;;;5.53;1.53;;;9.30;99.90;;;;;;5080812;28;20201;-50
2021/05/23 03:20:13;;;;;;;6.00;1.70;;;9.20;99.90;;;;;;5084430;28;20268;-49
2021/05/23 03:22:41;;;;;;;8.00;1.70;;;9.20;99.90;;;;;;5081124;28;20225;-57
2021/05/23 03:25:11;;;;;;;5.33;1.93;;;9.20;99.90;;;;;;5085231;28;20194;-47
2021/05/23 03:27:37;;;;;;;4.67;1.80;;;9.20;99.90;;;;;;5067373;28;20194;-56
2021/05/23 03:30:06;;;;;;;7.63;2.20;;;9.20;99.90;;;;;;5082478;28;20601;-49
2021/05/23 03:32:32;;;;;;;5.70;1.50;;;9.20;99.90;;;;;;5082473;28;20194;-55
2021/05/23 03:34:58;;;;;;;8.57;1.83;;;9.20;99.90;;;;;;5083656;28;20921;-50
2021/05/23 03:37:25;;;;;;;3.23;1.47;;;9.10;99.90;;;;;;5084031;28;20194;-56
2021/05/23 03:39:51;;;;;;;3.63;1.67;;;9.10;99.90;;;;;;5080588;28;20788;-51
2021/05/23 03:42:18;;;;;;;5.47;1.73;;;9.10;99.90;;;;;;5085159;28;20186;-50
2021/05/23 03:44:44;;;;;;;9.00;1.67;;;9.10;99.90;;;;;;5064670;28;20216;-48
2021/05/23 03:47:10;;;;;;;4.97;1.77;;;9.00;99.90;;;;;;5084688;28;20295;-48
2021/05/23 03:49:38;;;;;;;5.40;1.97;;;9.00;99.90;;;;;;5081176;28;20190;-56
2021/05/23 03:52:05;;;;;;;8.53;1.70;;;9.00;99.90;;;;;;5084634;28;20726;-50
2021/05/23 03:54:31;;;;;;;5.23;1.90;;;9.00;99.90;;;;;;5081169;28;20635;-56
2021/05/23 03:56:57;;;;;;;4.97;1.63;;;9.00;99.90;;;;;;5083534;28;20236;-51
2021/05/23 03:59:25;;;;;;;7.73;2.37;;;9.00;99.90;;;;;;5068384;28;20255;-56
2021/05/23 04:01:52;;;;;;;5.10;1.63;;;9.00;99.90;;;;;;5074047;28;20842;-54
2021/05/23 04:04:20;;;;;;;7.07;1.90;;;9.00;99.90;;;;;;5084476;28;20194;-49
2021/05/23 04:06:47;;;;;;;4.90;1.90;;;9.00;99.90;;;;;;5075682;28;20309;-49
2021/05/23 04:09:13;;;;;;;7.63;2.10;;;9.00;99.90;;;;;;5083686;28;20282;-59
2021/05/23 04:11:42;;;;;;;6.50;2.57;;;9.10;99.90;;;;;;5080429;28;20202;-54
2021/05/23 04:14:10;;;;;;;5.20;2.00;;;9.10;99.90;;;;;;5084206;28;20239;-48
2021/05/23 04:16:37;;;;;;;6.97;2.00;;;9.10;99.90;;;;;;5066642;28;20305;-55
2021/05/23 04:19:03;;;;;;;5.03;1.77;;;9.10;99.90;;;;;;5082197;28;20222;-49
2021/05/23 04:21:29;;;;;;;6.20;1.70;;;9.10;99.90;;;;;;5077072;28;20202;-55
2021/05/23 04:23:56;;;;;;;8.17;1.80;;;9.20;99.90;;;;;;5082224;28;20186;-53
2021/05/23 04:26:23;;;;;;;5.83;1.83;;;9.20;99.90;;;;;;5082439;28;20230;-55
2021/05/23 04:28:49;;;;;;;8.57;2.00;;;9.20;99.90;;;;;;5079793;28;20289;-48
2021/05/23 04:31:15;;;;;;;8.07;2.10;;;9.20;99.90;;;;;;5070011;28;20212;-47
2021/05/23 04:33:42;;;;;;;6.27;1.70;;;9.20;99.90;;;;;;5079850;28;20190;-49
2021/05/23 04:36:08;;;;;;;6.63;2.17;;;9.20;99.90;;;;;;5083914;28;22053;-50
2021/05/23 04:38:34;;;;;;;10.27;1.60;;;9.20;99.90;;;;;;5076051;28;20251;-55
2021/05/23 04:41:00;;;;;;;5.27;1.50;;;9.20;99.90;;;;;;5082588;28;20204;-51
2021/05/23 04:43:27;;;;;;;7.60;1.80;;;9.20;99.90;;;;;;5082796;28;20272;-55
2021/05/23 04:45:53;;;;;;;9.23;1.40;;;9.20;99.90;;;;;;5073236;28;20260;-51
2021/05/23 04:48:19;;;;;;;4.07;1.43;;;9.20;99.90;;;;;;5066391;28;20222;-55
2021/05/23 04:50:46;;;;;;;6.77;1.63;;;9.20;99.90;;;;;;5075792;28;20209;-51
2021/05/23 04:53:13;;;;;;;6.17;1.87;;;9.20;99.90;;;;;;5077414;28;20850;-54
2021/05/23 04:55:39;;;;;;;4.80;1.50;;;9.20;99.90;;;;;;5079910;28;20213;-49
2021/05/23 04:58:05;;;;;;;11.47;2.17;;;9.20;99.90;;;;;;5082413;28;20197;-51
2021/05/23 05:00:31;;;;;;;5.80;1.73;;;9.30;99.90;;;;;;5078840;28;20194;-50
2021/05/23 05:02:57;;;;;;;3.13;1.33;;;9.30;99.90;;;;;;5068810;28;20206;-49
2021/05/23 05:05:23;;;;;;;6.03;1.70;;;9.40;99.90;;;;;;5080620;28;20213;-53
2021/05/23 05:07:50;;;;;;;7.67;1.47;;;9.40;99.90;;;;;;5072401;28;20216;-48
2021/05/23 05:10:17;;;;;;;7.87;1.67;;;9.40;99.90;;;;;;5081547;28;20247;-53
2021/05/23 05:12:43;;;;;;;9.13;2.63;;;9.40;99.90;;;;;;5080999;28;20216;-48
2021/05/23 05:15:10;;;;;;;8.30;2.03;;;9.40;99.90;;;;;;5083358;28;20204;-51
2021/05/23 05:17:37;;;;;;;6.67;2.03;;;9.40;99.90;;;;;;5065308;28;21921;-47
2021/05/23 05:20:05;;;;;;;5.37;1.40;;;9.50;99.90;;;;;;5082611;28;20190;-48
2021/05/23 05:22:31;;;;;;;6.20;1.90;;;9.50;99.90;;;;;;5075000;28;20958;-48
2021/05/23 05:24:58;;;;;;;6.30;1.97;;;9.50;99.90;;;;;;5082322;28;20263;-48
2021/05/23 05:27:25;;;;;;;7.07;1.90;;;9.60;99.90;;;;;;5087107;28;20217;-57
2021/05/23 05:29:51;;;;;;;6.60;1.87;;;9.60;99.90;;;;;;5093196;28;20275;-48
2021/05/23 05:32:17;;;;;;;7.47;2.37;;;9.60;99.90;;;;;;5086096;28;20190;-55
2021/05/23 05:34:43;;;;;;;4.30;1.23;;;9.50;99.90;;;;;;5070427;28;20208;-48
2021/05/23 05:37:10;;;;;;;8.60;1.90;;;9.50;99.90;;;;;;5087079;28;20245;-50
2021/05/23 05:39:36;;;;;;;3.53;1.30;;;9.50;99.90;;;;;;5073508;28;20201;-48
2021/05/23 05:42:04;;;;;;;4.60;1.67;;;9.60;99.90;;;;;;5080350;28;20210;-53
2021/05/23 05:44:30;;;;;;;11.27;2.13;;;9.60;99.90;;;;;;5080349;28;20186;-53
2021/05/23 05:46:56;;;;;;;6.80;1.73;;;9.60;99.90;;;;;;5080435;28;20224;-50
2021/05/23 05:49:22;;;;;;;9.33;1.90;;;9.60;99.90;;;;;;5072423;28;20216;-56
2021/05/23 05:51:49;;;;;;;8.53;1.93;;;9.70;99.90;;;;;;5081287;28;20262;-56
2021/05/23 05:54:16;;;;;;;8.80;1.97;;;9.80;99.90;;;;;;5085381;28;20263;-56
2021/05/23 05:56:42;;;;;;;9.10;1.93;;;9.80;99.90;;;;;;5080389;28;20214;-49
2021/05/23 05:59:09;;;;;;;7.33;2.00;;;9.90;99.90;;;;;;5085891;28;20202;-49
2021/05/23 06:01:35;;;;;;;5.90;1.50;;;9.90;99.90;;;;;;5082841;28;20197;-48
2021/05/23 06:04:01;;;;;;;4.27;1.60;;;9.90;99.90;;;;;;5086955;28;20281;-49
2021/05/23 06:06:28;;;;;;;5.90;1.30;;;10.00;99.90;;;;;;5067086;28;20291;-54
2021/05/23 06:08:55;;;;;;;6.50;1.60;;;10.00;99.90;;;;;;5086215;28;20205;-50
2021/05/23 06:11:21;;;;;;;7.87;2.27;;;10.10;99.90;;;;;;5079490;28;20197;-54
2021/05/23 06:13:47;;;;;;;4.90;1.80;;;10.10;99.90;;;;;;5084961;28;20907;-51
2021/05/23 06:16:14;;;;;;;9.63;1.83;;;10.20;99.90;;;;;;5084634;28;20598;-57
2021/05/23 06:18:41;;;;;;;6.67;1.60;;;10.30;99.90;;;;;;5082897;28;20201;-52
2021/05/23 06:21:07;;;;;;;9.63;1.40;;;10.30;99.90;;;;;;5072167;28;20210;-51
2021/05/23 06:23:33;;;;;;;5.10;1.37;;;10.30;99.90;;;;;;5082489;28;20191;-51
2021/05/23 06:25:59;;;;;;;5.43;1.57;;;10.40;99.90;;;;;;5082283;28;20282;-52
2021/05/23 06:28:26;;;;;;;7.43;1.63;;;10.40;99.90;;;;;;5082534;28;20269;-54
2021/05/23 06:30:52;;;;;;;9.30;1.70;;;10.50;99.90;;;;;;5085219;28;20190;-48
2021/05/23 06:33:19;;;;;;;7.87;1.60;;;10.50;99.90;;;;;;5084168;28;20581;-55
2021/05/23 06:35:45;;;;;;;6.03;1.40;;;10.60;99.90;;;;;;5069071;28;20222;-50
2021/05/23 06:38:12;;;;;;;5.43;1.40;;;10.70;99.90;;;;;;5085757;28;20217;-55
2021/05/23 06:40:38;;;;;;;6.87;1.53;;;10.70;99.90;;;;;;5082448;28;20206;-50
2021/05/23 06:43:04;;;;;;;4.57;1.10;;;10.70;99.90;;;;;;5081026;28;20210;-52
2021/05/23 06:45:31;;;;;;;6.97;1.60;;;10.70;99.90;;;;;;5079047;28;20275;-48
2021/05/23 06:47:57;;;;;;;10.57;1.80;;;10.70;99.90;;;;;;5085813;28;20190;-52
2021/05/23 06:50:24;;;;;;;8.57;2.13;;;10.80;99.90;;;;;;5071076;28;20568;-55
2021/05/23 06:52:50;;;;;;;4.73;1.60;;;10.80;99.90;;;;;;5081662;28;20867;-47
2021/05/23 06:55:16;;;;;;;7.10;1.93;;;10.80;99.90;;;;;;5077234;28;20225;-55
2021/05/23 06:57:42;;;;;;;5.07;1.43;;;10.80;99.90;;;;;;5072758;28;20938;-52
2021/05/23 07:00:10;;;;;;;6.33;1.70;;;10.80;99.90;;;;;;5079384;28;20229;-51
2021/05/23 07:02:36;;;;;;;6.80;1.47;;;10.90;99.90;;;;;;5080898;28;21001;-47
2021/05/23 07:05:03;;;;;;;7.90;1.47;;;11.00;99.90;;;;;;5067518;28;20198;-53
2021/05/23 07:07:31;;;;;;;5.30;1.87;;;11.00;99.90;;;;;;5069608;28;20226;-50
2021/05/23 07:09:58;;;;;;;4.10;1.47;;;11.00;99.90;;;;;;5077572;28;20233;-55
2021/05/23 07:12:24;;;;;;;5.57;1.33;;;11.10;99.90;;;;;;5081698;28;20186;-47
2021/05/23 07:14:50;;;;;;;7.23;1.40;;;11.20;99.90;;;;;;5079176;28;20206;-54
2021/05/23 07:17:16;;;;;;;4.57;1.20;;;11.30;99.90;;;;;;5078203;28;20221;-48
2021/05/23 07:19:42;;;;;;;3.97;1.00;;;11.30;99.90;;;;;;5084812;28;20197;-51
2021/05/23 07:22:09;;;;;;;7.10;1.57;;;11.30;99.90;;;;;;5067331;28;20271;-49
2021/05/23 07:24:35;;;;;;;6.13;1.50;;;11.30;99.90;;;;;;5080531;28;20632;-47
2021/05/23 07:27:02;;;;;;;4.83;1.47;;;11.30;99.90;;;;;;5082237;28;20226;-53
2021/05/23 07:29:28;;;;;;;5.20;1.60;;;11.30;99.90;;;;;;5078748;28;20706;-49
2021/05/23 07:31:54;;;;;;;5.03;1.03;;;11.30;99.90;;;;;;5083709;28;20686;-52
2021/05/23 07:34:21;;;;;;;2.33;1.10;;;11.30;99.90;;;;;;5082708;28;20189;-48
2021/05/23 07:36:47;;;;;;;4.90;1.60;;;11.30;99.90;;;;;;5084924;28;20210;-56
2021/05/23 07:39:13;;;;;;;9.43;1.60;;;11.40;99.90;;;;;;5065839;28;20202;-51
2021/05/23 07:41:40;;;;;;;5.53;1.10;;;11.60;99.90;;;;;;5079006;28;20212;-50
2021/05/23 07:44:06;;;;;;;7.57;1.93;;;11.80;99.90;;;;;;5075595;28;20739;-54
2021/05/23 07:46:32;;;;;;;3.57;0.97;;;11.90;99.90;;;;;;5078363;28;20305;-49
2021/05/23 07:48:58;;;;;;;3.97;1.13;;;12.00;99.90;;;;;;5075758;28;20197;-55
2021/05/23 07:51:25;;;;;;;5.73;1.27;;;12.00;99.90;;;;;;5078424;28;20186;-47
2021/05/23 07:53:52;;;;;;;3.70;1.40;;;12.00;99.90;;;;;;5060870;28;20205;-56
2021/05/23 07:56:18;;;;;;;4.47;1.27;;;12.10;99.90;;;;;;5074450;28;20229;-49
2021/05/23 07:58:45;;;;;;;5.23;1.13;;;12.30;99.90;;;;;;5076498;28;20598;-52
2021/05/23 08:01:13;;;;;;;6.33;1.43;;;12.30;99.90;;;;;;5074469;28;20184;-47
2021/05/23 08:03:39;;;;;;;5.57;1.67;;;12.50;99.90;;;;;;5084595;28;20190;-49
2021/05/23 08:06:07;;;;;;;9.60;1.23;;;12.50;99.90;;;;;;5080634;28;20217;-52
2021/05/23 08:08:33;;;;;;;3.87;1.03;;;12.40;99.90;;;;;;5078246;28;20202;-55
2021/05/23 08:10:59;;;;;;;7.67;1.93;;;12.30;99.90;;;;;;5065868;28;20213;-55
2021/05/23 08:13:25;;;;;;;6.37;1.40;;;12.30;99.90;;;;;;5072814;28;21011;-47
2021/05/23 08:15:54;;;;;;;5.70;1.40;;;12.40;99.90;;;;;;5083209;28;20202;-56
2021/05/23 08:18:27;;;;;;;4.37;1.20;;;12.40;99.90;;;;;;5078429;28;20900;-47
2021/05/23 08:20:56;;;;;;;5.83;1.13;;;12.30;99.90;;;;;;5082039;28;20182;-53
2021/05/23 08:23:22;;;;;;;2.43;1.00;;;12.10;99.90;;;;;;5081603;28;20259;-48
2021/05/23 08:25:48;;;;;;;4.97;1.17;;;12.10;99.90;;;;;;5067096;28;20225;-53
2021/05/23 08:28:14;;;;;;;3.23;1.10;;;11.90;99.90;;;;;;5068863;28;20186;-47
2021/05/23 08:30:41;;;;;;;5.30;1.80;;;11.90;99.90;;;;;;5077401;28;20335;-48
2021/05/23 08:33:10;;;;;;;4.47;1.60;;;12.10;99.90;;;;;;5067325;28;20989;-46
2021/05/23 08:35:36;;;;;;;3.20;1.10;;;12.30;99.90;;;;;;5081833;28;20260;-47
2021/05/23 08:38:03;;;;;;;3.83;1.13;;;12.50;99.90;;;;;;5077351;28;20679;-46
2021/05/23 08:40:30;;;;;;;5.33;1.20;;;12.70;99.90;;;;;;5071966;28;20667;-49
2021/05/23 08:42:56;;;;;;;3.73;0.93;;;12.60;99.90;;;;;;5068008;28;20206;-46
2021/05/23 08:45:22;;;;;;;5.20;0.97;;;12.60;99.90;;;;;;5083032;28;20622;-46
2021/05/23 08:47:50;;;;;;;4.60;0.80;;;12.70;99.90;;;;;;5073423;28;20268;-45
2021/05/23 08:50:20;;;;;;;3.07;1.27;;;12.70;99.90;;;;;;5081195;28;20202;-47
2021/05/23 08:52:52;;;;;;;3.20;1.10;;;12.90;99.90;;;;;;5074504;28;20202;-46
2021/05/23 08:55:18;;;;;;;3.03;1.10;;;13.00;99.90;;;;;;5074170;28;20226;-45
2021/05/23 08:57:44;;;;;;;5.20;1.50;;;12.90;99.90;;;;;;5059971;28;20198;-46
2021/05/23 09:00:12;;;;;;;4.50;1.10;;;12.90;99.90;;;;;;5082417;28;20285;-46
2021/05/23 09:02:48;;;;;;;8.90;1.57;;;12.80;99.90;;;;;;5073915;28;20259;-49
2021/05/23 09:05:14;;;;;;;2.27;1.00;;;12.80;99.90;;;;;;5075176;28;20666;-46
2021/05/23 09:07:46;;;;;;;4.47;0.90;;;12.80;99.90;;;;;;5071936;28;20233;-50
2021/05/23 09:10:22;;;;;;;3.60;1.33;;;12.90;99.90;;;;;;5083027;28;20196;-48
2021/05/23 09:12:49;;;;;;;3.97;1.07;;;12.90;99.90;;;;;;5062534;28;20205;-52
2021/05/23 09:15:16;;;;;;;6.10;1.10;;;12.80;99.90;;;;;;5083038;28;20193;-45
2021/05/23 09:17:42;;;;;;;3.50;0.97;;;12.80;99.90;;;;;;5070590;28;20289;-47
2021/05/23 09:20:15;;;;;;;8.33;1.40;;;12.80;99.90;;;;;;5077674;28;20210;-46
2021/05/23 09:22:42;;;;;;;3.87;1.23;;;12.90;99.90;;;;;;5071873;28;20199;-47
2021/05/23 09:25:10;;;;;;;3.63;0.97;;;12.90;99.90;;;;;;5079328;28;20516;-44
2021/05/23 09:27:45;;;;;;;3.23;0.80;;;13.00;99.90;;;;;;5065171;28;20213;-51
2021/05/23 09:30:16;;;;;;;3.10;1.17;;;13.10;99.90;;;;;;5058958;28;20210;-50
2021/05/23 09:32:44;;;;;;;2.33;1.10;;;13.30;99.90;;;;;;5077582;28;20194;-50
2021/05/23 09:35:12;;;;;;;2.13;0.77;;;13.30;99.90;;;;;;5077281;28;20228;-46
2021/05/23 09:37:38;;;;;;;2.50;0.80;;;13.30;99.90;;;;;;5072164;28;20205;-52
2021/05/23 09:40:17;;;;;;;3.90;1.00;;;13.20;99.90;;;;;;5081421;28;20239;-47
2021/05/23 09:42:45;;;;;;;1.27;0.70;;;13.00;99.90;;;;;;5076797;28;20190;-48
2021/05/23 09:45:12;;;;;;;4.53;1.10;;;13.00;99.90;;;;;;5067839;28;20548;-46
2021/05/23 09:47:50;;;;;;;5.30;1.07;;;13.00;99.90;;;;;;5076169;28;20741;-52
2021/05/23 09:50:16;;;;;;;1.80;0.73;;;12.90;99.90;;;;;;5077874;28;20197;-48
2021/05/23 09:52:42;;;;;;;5.70;1.73;;;12.90;99.90;;;;;;5072374;28;20209;-50
2021/05/23 09:55:09;;;;;;;2.50;1.03;;;12.80;99.90;;;;;;5076414;28;20224;-48
2021/05/23 09:57:36;;;;;;;3.47;1.00;;;12.70;99.90;;;;;;5072347;28;20190;-54
2021/05/23 10:00:06;;;;;;;2.43;0.90;;;12.60;99.90;;;;;;5063013;28;20739;-48
2021/05/23 10:02:34;;;;;;;1.97;1.03;;;12.70;99.90;;;;;;5067758;28;20881;-49
2021/05/23 10:05:05;;;;;;;2.20;1.20;;;12.90;99.90;;;;;;5076904;28;20697;-54
2021/05/23 10:07:35;;;;;;;6.53;1.67;;;12.90;99.90;;;;;;5069387;28;20252;-47
2021/05/23 10:10:01;;;;;;;3.63;0.80;;;13.00;99.90;;;;;;5078459;28;20194;-55
2021/05/23 10:12:28;;;;;;;2.90;0.90;;;13.10;99.90;;;;;;5084003;28;20210;-46
2021/05/23 10:14:55;;;;;;;4.63;0.93;;;13.30;99.90;;;;;;5075242;28;20197;-55
2021/05/23 10:17:22;;;;;;;1.17;0.80;;;13.20;99.90;;;;;;5065199;28;20197;-50
2021/05/23 10:19:49;;;;;;;6.73;1.50;;;13.30;99.90;;;;;;5085857;28;20201;-55
2021/05/23 10:22:15;;;;;;;2.07;1.07;;;13.40;99.90;;;;;;5077933;28;20198;-51
2021/05/23 10:24:45;;;;;;;1.73;1.07;;;13.50;99.90;;;;;;5086001;28;20280;-49
2021/05/23 10:27:16;;;;;;;3.40;0.70;;;13.50;99.90;;;;;;5081776;28;20229;-49
2021/05/23 10:29:45;;;;;;;2.87;0.60;;;13.50;99.90;;;;;;5078301;28;20761;-48
2021/05/23 10:32:14;;;;;;;5.33;0.80;;;13.60;99.90;;;;;;5065794;28;20206;-45
2021/05/23 10:34:42;;;;;;;2.87;0.80;;;13.60;99.90;;;;;;5086135;28;20238;-45
2021/05/23 10:37:09;;;;;;;3.03;1.00;;;13.60;99.90;;;;;;5071461;28;20292;-47
2021/05/23 10:39:38;;;;;;;2.60;0.70;;;13.60;99.90;;;;;;5085545;28;20194;-50
2021/05/23 10:42:05;;;;;;;5.40;1.50;;;13.80;99.90;;;;;;5080774;28;20202;-54
2021/05/23 10:44:39;;;;;;;2.80;1.00;;;13.90;99.90;;;;;;5085627;28;20200;-48
2021/05/23 10:47:10;;;;;;;3.87;0.87;;;14.00;99.90;;;;;;5064219;28;20217;-50
2021/05/23 10:49:52;;;;;;;2.40;0.80;;;13.90;99.90;;;;;;5084450;28;20605;-46
2021/05/23 10:52:19;;;;;;;3.30;1.00;;;13.90;99.90;;;;;;5075326;28;20213;-51
2021/05/23 10:54:59;;;;;;;3.00;0.77;;;14.00;99.90;;;;;;5076231;28;20652;-53
2021/05/23 10:57:25;;;;;;;2.03;0.80;;;14.10;99.90;;;;;;5065301;28;20190;-49
2021/05/23 10:59:59;;;;;;;1.80;0.73;;;14.00;99.90;;;;;;5078224;28;20198;-52
2021/05/23 11:02:39;;;;;;;2.53;0.90;;;13.80;99.90;;;;;;5062547;28;20202;-47
2021/05/23 11:05:09;;;;;;;1.80;0.93;;;13.60;99.90;;;;;;5081917;28;20202;-45
2021/05/23 11:07:35;;;;;;;5.13;0.80;;;13.60;99.90;;;;;;5095700;28;20816;-48
2021/05/23 11:10:01;;;;;;;1.50;1.00;;;13.60;99.90;;;;;;5083761;28;20198;-46
2021/05/23 11:12:28;;;;;;;4.27;0.80;;;13.60;99.90;;;;;;5082476;28;20229;-52
2021/05/23 11:14:55;;;;;;;3.00;0.73;;;13.70;99.90;;;;;;5069112;28;20258;-48
2021/05/23 11:17:22;;;;;;;3.80;0.93;;;13.70;99.90;;;;;;5078073;28;20182;-50
2021/05/23 11:19:48;;;;;;;4.83;1.20;;;14.00;99.90;;;;;;5073959;28;20201;-50
2021/05/23 11:22:15;;;;;;;3.57;0.80;;;14.30;99.90;;;;;;5077093;28;20204;-47
2021/05/23 11:24:45;;;;;;;2.33;0.73;;;14.60;99.90;;;;;;5076408;28;20204;-47
2021/05/23 11:27:13;;;;;;;2.30;1.13;;;14.80;99.90;;;;;;5085236;28;20229;-46
2021/05/23 11:29:44;;;;;;;4.37;0.77;;;14.70;99.90;;;;;;5076142;28;20206;-45
2021/05/23 11:32:14;;;;;;;3.10;0.90;;;14.80;98.50;;;;;;5079931;28;20251;-45
2021/05/23 11:34:40;;;;;;;2.20;0.80;;;14.90;99.60;;;;;;5068007;28;20260;-49
2021/05/23 11:37:07;;;;;;;2.27;0.90;;;15.00;99.00;;;;;;5083192;28;20549;-48
2021/05/23 11:39:34;;;;;;;1.13;0.80;;;15.00;98.10;;;;;;5076209;28;20217;-51
2021/05/23 11:42:02;;;;;;;0.93;0.53;;;15.00;98.20;;;;;;5083978;28;20198;-47
2021/05/23 11:44:36;;;;;;;0.87;0.43;;;15.20;98.20;;;;;;5076723;28;20285;-51
2021/05/23 11:47:03;;;;;;;1.63;0.50;;;15.10;96.60;;;;;;5081956;28;20226;-45
2021/05/23 11:49:30;;;;;;;3.50;1.10;;;14.80;96.90;;;;;;5066449;28;20591;-49
2021/05/23 11:52:00;;;;;;;2.60;0.80;;;14.70;97.70;;;;;;5076959;28;20341;-49
2021/05/23 11:54:27;;;;;;;2.47;0.83;;;14.70;98.60;;;;;;5080860;28;20194;-53
2021/05/23 11:56:54;;;;;;;1.23;0.60;;;14.70;99.60;;;;;;5081112;28;20237;-50
2021/05/23 11:59:21;;;;;;;3.33;0.83;;;14.70;99.60;;;;;;5081865;28;20190;-48
2021/05/23 12:01:51;;;;;;;2.23;1.27;;;14.70;98.90;;;;;;5068356;28;20205;-45
2021/05/23 12:04:18;;;;;;;1.63;0.67;;;14.60;98.50;;;;;;5064859;28;20705;-48
2021/05/23 12:06:48;;;;;;;4.70;1.30;;;14.50;98.70;;;;;;5081098;28;20933;-45
2021/05/23 12:09:16;;;;;;;2.20;0.70;;;14.40;98.80;;;;;;5063830;28;20187;-48
2021/05/23 12:11:47;;;;;;;1.70;0.63;;;14.40;98.40;;;;;;5060806;28;20291;-47
2021/05/23 12:14:26;;;;;;;2.97;1.03;;;14.40;98.30;;;;;;5082909;28;20561;-48
2021/05/23 12:17:00;;;;;;;1.10;0.60;;;14.60;98.30;;;;;;5077061;28;20237;-46
2021/05/23 12:19:47;;;;;;;4.67;1.03;;;14.70;98.50;;;;;;5060485;28;20205;-52
2021/05/23 12:22:16;;;;;;;1.53;0.83;;;14.80;98.10;;;;;;5075226;28;20246;-46
2021/05/23 12:24:43;;;;;;;1.43;0.60;;;14.70;98.80;;;;;;5072386;28;20201;-53
2021/05/23 12:27:14;;;;;;;2.97;1.00;;;14.70;98.40;;;;;;5074732;28;20301;-47
2021/05/23 12:29:41;;;;;;;1.67;0.43;;;14.70;98.10;;;;;;5079307;28;20194;-51
2021/05/23 12:32:08;;;;;;;1.70;1.00;;;14.70;97.80;;;;;;5075761;28;20288;-45
2021/05/23 12:34:42;;;;;;;4.10;0.70;;;14.70;97.60;;;;;;5065300;28;20240;-44
2021/05/23 12:37:08;;;;;;;1.43;0.50;;;14.80;97.10;;;;;;5080867;28;20231;-44
2021/05/23 12:39:34;;;;;;;1.90;0.67;;;14.90;96.60;;;;;;5083450;28;20194;-45
2021/05/23 12:42:04;;;;;;;1.03;0.60;;;15.10;96.60;;;;;;5079436;28;20701;-45
2021/05/23 12:44:31;;;;;;;2.33;0.70;;;15.40;97.00;;;;;;5079319;28;20247;-47
2021/05/23 12:47:08;;;;;;;3.73;0.73;;;15.80;95.60;;;;;;5098055;28;20236;-46
2021/05/23 12:49:37;;;;;;;1.97;0.80;;;16.20;94.90;;;;;;5070390;28;20205;-46
2021/05/23 12:52:07;;;;;;;0.87;0.60;;;16.50;92.70;;;;;;5083371;28;20208;-49
2021/05/23 12:54:35;;;;;;;0.50;0.40;;;16.50;93.00;;;;;;5080534;28;20193;-47